Time;durP1;ratioP1;P1;durP2;ratioP2;P2;SDS_P1;SDS_P2;PMS_P1;PMS_P2;Temp;Humidity;BMP_temperature;BMP_pressure;BME280_temperature;BME280_humidity;BME280_pressure;Samples;Min_cycle;Max_cycle;Signal;HPM_P1;HPM_P2
2023/01/01 00:01:07;;;;;;;2.73;1.93;;;;;;;14.67;100.00;100578.94;4983771;28;20216;-72
2023/01/01 00:03:33;;;;;;;3.13;2.10;;;;;;;14.71;100.00;100582.28;4977783;28;20202;-70
2023/01/01 00:06:05;;;;;;;5.43;2.30;;;;;;;14.65;100.00;100585.16;4981896;28;20392;-71
2023/01/01 00:08:31;;;;;;;2.70;2.30;;;;;;;14.60;100.00;100585.38;4983204;28;20221;-74
2023/01/01 00:11:00;;;;;;;5.43;2.33;;;;;;;14.52;100.00;100588.28;4975869;28;20225;-71
2023/01/01 00:13:27;;;;;;;3.30;2.53;;;;;;;14.54;100.00;100593.47;4982587;28;20614;-73
2023/01/01 00:15:53;;;;;;;2.93;2.03;;;;;;;14.54;100.00;100586.44;4982030;28;20193;-74
2023/01/01 00:18:19;;;;;;;4.57;2.37;;;;;;;14.56;100.00;100589.88;4982745;28;20221;-74
2023/01/01 00:20:46;;;;;;;3.47;2.50;;;;;;;14.55;100.00;100603.06;4979696;28;20208;-72
2023/01/01 00:23:13;;;;;;;4.00;2.40;;;;;;;14.72;100.00;100608.47;4983623;28;20611;-72
2023/01/01 00:25:40;;;;;;;5.17;3.10;;;;;;;14.67;100.00;100601.69;4983474;28;20213;-72
2023/01/01 00:28:08;;;;;;;3.90;2.57;;;;;;;14.64;100.00;100610.56;4984782;28;20224;-73
2023/01/01 00:30:35;;;;;;;2.87;2.10;;;;;;;14.66;100.00;100607.88;4983870;28;20320;-74
2023/01/01 00:33:01;;;;;;;4.07;1.97;;;;;;;14.57;100.00;100604.69;4982004;28;20198;-73
2023/01/01 00:35:28;;;;;;;2.77;2.20;;;;;;;14.54;100.00;100609.22;4985644;28;20228;-75
2023/01/01 00:37:55;;;;;;;3.13;2.10;;;;;;;14.61;100.00;100620.34;4984745;28;20221;-74
2023/01/01 00:40:22;;;;;;;3.10;2.20;;;;;;;14.68;100.00;100624.41;4977243;28;20197;-74
2023/01/01 00:42:49;;;;;;;3.00;1.80;;;;;;;14.70;100.00;100619.94;4981220;28;20204;-74
2023/01/01 00:45:16;;;;;;;2.77;2.07;;;;;;;14.69;100.00;100623.50;4981693;28;20618;-70
2023/01/01 00:47:42;;;;;;;3.13;2.07;;;;;;;14.70;100.00;100612.06;4979770;28;20214;-74
2023/01/01 00:50:09;;;;;;;1.97;1.60;;;;;;;14.74;100.00;100611.88;4979391;28;20221;-74
2023/01/01 00:52:35;;;;;;;2.27;1.80;;;;;;;14.68;100.00;100614.75;4981103;28;20883;-75
2023/01/01 00:55:01;;;;;;;3.50;1.97;;;;;;;14.73;100.00;100614.56;4983129;28;20205;-74
2023/01/01 00:57:29;;;;;;;4.73;2.13;;;;;;;14.71;100.00;100616.41;4982567;28;20225;-71
2023/01/01 00:59:56;;;;;;;2.20;1.80;;;;;;;14.67;100.00;100612.19;4984226;28;20201;-74
2023/01/01 01:02:22;;;;;;;2.47;1.70;;;;;;;14.57;100.00;100628.31;4981834;28;20215;-71
2023/01/01 01:04:48;;;;;;;4.07;1.87;;;;;;;14.56;100.00;100612.63;4980453;28;20296;-74
2023/01/01 01:07:15;;;;;;;3.87;1.77;;;;;;;14.61;100.00;100610.69;4982241;28;20721;-74
2023/01/01 01:09:41;;;;;;;4.17;2.13;;;;;;;14.71;100.00;100617.25;4983907;28;20560;-74
2023/01/01 01:12:07;;;;;;;2.23;1.50;;;;;;;14.59;100.00;100615.16;4980086;28;20974;-75
2023/01/01 01:14:35;;;;;;;3.17;1.97;;;;;;;14.59;100.00;100625.66;4985068;28;20198;-73
2023/01/01 01:17:02;;;;;;;6.17;1.90;;;;;;;14.57;100.00;100627.47;4983277;28;20223;-73
2023/01/01 01:19:28;;;;;;;2.73;2.43;;;;;;;14.53;100.00;100623.28;4976941;28;20209;-74
2023/01/01 01:21:55;;;;;;;2.03;1.60;;;;;;;14.53;100.00;100631.97;4980324;28;20209;-73
2023/01/01 01:24:21;;;;;;;2.53;1.60;;;;;;;14.51;100.00;100631.19;4978724;28;20736;-73
2023/01/01 01:26:48;;;;;;;3.00;2.00;;;;;;;14.55;100.00;100635.38;4978676;28;20556;-74
2023/01/01 01:29:14;;;;;;;2.70;1.70;;;;;;;14.54;100.00;100633.66;4982041;28;20217;-72
2023/01/01 01:31:42;;;;;;;3.57;2.10;;;;;;;14.55;100.00;100631.91;4977912;28;20205;-74
2023/01/01 01:34:08;;;;;;;6.13;2.27;;;;;;;14.46;100.00;100641.03;4977288;28;20213;-74
2023/01/01 01:36:35;;;;;;;3.83;2.00;;;;;;;14.47;100.00;100636.63;4976345;28;20669;-73
2023/01/01 01:39:01;;;;;;;4.03;2.10;;;;;;;14.44;100.00;100637.63;4981531;28;20232;-74
2023/01/01 01:41:28;;;;;;;3.10;2.03;;;;;;;14.39;100.00;100639.59;4982089;28;20205;-74
2023/01/01 01:43:58;;;;;;;4.00;2.17;;;;;;;14.44;100.00;100640.25;4980204;28;20197;-74
2023/01/01 01:46:30;;;;;;;3.57;2.03;;;;;;;14.49;100.00;100647.91;4983745;28;20209;-73
2023/01/01 01:49:02;;;;;;;4.43;2.10;;;;;;;14.46;100.00;100648.91;4980116;28;20227;-73
2023/01/01 01:51:39;;;;;;;2.47;2.07;;;;;;;14.45;100.00;100641.94;4975077;28;20212;-72
2023/01/01 01:54:10;;;;;;;3.20;2.10;;;;;;;14.35;100.00;100646.72;4979841;28;20197;-74
2023/01/01 01:56:45;;;;;;;3.53;2.10;;;;;;;14.33;100.00;100651.16;4976244;28;20286;-73
2023/01/01 01:59:12;;;;;;;2.53;1.80;;;;;;;14.35;100.00;100654.59;4979885;28;20587;-74
2023/01/01 02:01:39;;;;;;;3.20;1.80;;;;;;;14.31;100.00;100662.66;4982271;28;20208;-72
2023/01/01 02:04:06;;;;;;;4.43;1.80;;;;;;;14.27;100.00;100663.69;4981060;28;20983;-73
2023/01/01 02:06:34;;;;;;;3.23;1.90;;;;;;;14.16;100.00;100669.38;4983318;28;20185;-74
2023/01/01 02:09:04;;;;;;;2.87;1.90;;;;;;;14.10;100.00;100677.47;4979804;28;20226;-73
2023/01/01 02:11:31;;;;;;;3.20;1.93;;;;;;;14.08;100.00;100668.81;4980947;28;20213;-73
2023/01/01 02:13:59;;;;;;;3.57;2.30;;;;;;;13.99;100.00;100681.38;4981922;28;20209;-73
2023/01/01 02:16:33;;;;;;;3.63;2.00;;;;;;;13.98;100.00;100674.44;4982324;28;20221;-72
2023/01/01 02:19:04;;;;;;;2.67;1.83;;;;;;;13.85;100.00;100675.81;4982315;28;20234;-73
2023/01/01 02:21:37;;;;;;;3.63;2.20;;;;;;;13.84;100.00;100671.47;4980015;28;20212;-71
2023/01/01 02:24:31;;;;;;;3.13;2.00;;;;;;;13.76;100.00;100671.78;4977588;28;20216;-74
2023/01/01 02:27:03;;;;;;;4.43;2.00;;;;;;;13.76;100.00;100679.66;4978448;28;20710;-73
2023/01/01 02:29:45;;;;;;;3.10;2.00;;;;;;;13.76;100.00;100678.81;4977251;28;20523;-72
2023/01/01 02:32:15;;;;;;;2.80;1.93;;;;;;;13.81;100.00;100674.25;4979357;28;20292;-73
2023/01/01 02:34:46;;;;;;;4.77;2.20;;;;;;;13.75;100.00;100671.84;4981875;28;20208;-74
2023/01/01 02:37:17;;;;;;;3.17;2.10;;;;;;;13.79;100.00;100668.19;4982496;28;20226;-74
2023/01/01 02:39:47;;;;;;;2.37;1.80;;;;;;;13.70;100.00;100664.19;4975767;28;20194;-70
2023/01/01 02:42:15;;;;;;;4.03;2.30;;;;;;;13.60;100.00;100661.03;4981961;28;20564;-72
2023/01/01 02:44:48;;;;;;;3.83;2.23;;;;;;;13.59;100.00;100668.97;4979943;28;20197;-71
2023/01/01 02:47:16;;;;;;;2.67;2.17;;;;;;;13.60;100.00;100676.75;4976631;28;21014;-72
2023/01/01 02:49:54;;;;;;;3.23;2.03;;;;;;;13.55;100.00;100670.84;4984699;28;20220;-72
2023/01/01 02:52:42;;;;;;;3.77;2.23;;;;;;;13.52;100.00;100665.72;4981611;28;20205;-74
2023/01/01 02:55:20;;;;;;;2.70;2.00;;;;;;;13.54;100.00;100668.28;4982749;28;20310;-74
2023/01/01 02:57:57;;;;;;;4.70;2.20;;;;;;;13.43;100.00;100660.81;4980261;28;20224;-71
2023/01/01 03:00:27;;;;;;;5.03;2.50;;;;;;;13.49;100.00;100658.00;4981826;28;20208;-74
2023/01/01 03:03:11;;;;;;;4.77;2.40;;;;;;;13.45;100.00;100659.00;4978008;28;20208;-70
2023/01/01 03:08:30;;;;;;;2.70;2.00;;;;;;;13.46;100.00;100680.81;4977101;28;20226;-74
2023/01/01 03:11:03;;;;;;;4.33;2.47;;;;;;;13.34;100.00;100679.50;4976457;28;20231;-72
2023/01/01 03:13:39;;;;;;;5.87;2.33;;;;;;;13.33;100.00;100676.03;4984045;28;20208;-73
2023/01/01 03:16:14;;;;;;;2.50;1.77;;;;;;;13.42;100.00;100673.06;4975519;28;20200;-74
2023/01/01 03:18:45;;;;;;;4.03;2.50;;;;;;;13.37;100.00;100672.38;4978053;28;20228;-73
2023/01/01 03:21:16;;;;;;;4.50;2.27;;;;;;;13.48;100.00;100677.22;4979857;28;20277;-72
2023/01/01 03:23:53;;;;;;;3.57;2.27;;;;;;;13.38;100.00;100675.84;4979480;28;20559;-69
2023/01/01 03:26:22;;;;;;;4.73;2.23;;;;;;;13.44;100.00;100680.88;4982492;28;20207;-73
2023/01/01 03:28:53;;;;;;;4.10;2.17;;;;;;;13.39;100.00;100683.66;4979158;28;20591;-72
2023/01/01 03:31:25;;;;;;;3.33;2.27;;;;;;;13.42;100.00;100686.16;4980581;28;20592;-70
2023/01/01 03:33:58;;;;;;;2.93;2.07;;;;;;;13.50;100.00;100682.41;4978380;28;20210;-73
2023/01/01 03:36:32;;;;;;;3.83;2.33;;;;;;;13.46;100.00;100686.06;4983772;28;20220;-70
2023/01/01 03:39:03;;;;;;;5.03;2.20;;;;;;;13.41;100.00;100678.38;4984641;28;20777;-73
2023/01/01 03:41:36;;;;;;;4.00;2.63;;;;;;;13.46;100.00;100686.91;4982958;28;20298;-73
2023/01/01 03:44:07;;;;;;;3.93;2.13;;;;;;;13.46;100.00;100681.66;4979359;28;20291;-73
2023/01/01 03:46:36;;;;;;;5.23;2.10;;;;;;;13.29;100.00;100692.72;4983020;28;20205;-73
2023/01/01 03:49:06;;;;;;;3.83;2.63;;;;;;;13.23;100.00;100688.56;4976685;28;20239;-73
2023/01/01 03:51:48;;;;;;;4.33;2.30;;;;;;;13.32;100.00;100689.19;4979126;28;20716;-74
2023/01/01 03:54:28;;;;;;;4.03;2.27;;;;;;;13.23;100.00;100679.88;4984619;28;20206;-73
2023/01/01 03:57:04;;;;;;;5.27;2.40;;;;;;;13.27;100.00;100679.69;4980906;28;20206;-72
2023/01/01 03:59:40;;;;;;;3.33;1.93;;;;;;;13.18;100.00;100680.03;4977478;28;20223;-74
2023/01/01 04:02:11;;;;;;;4.40;2.00;;;;;;;13.36;100.00;100682.91;4984179;28;20341;-74
2023/01/01 04:04:38;;;;;;;3.97;2.27;;;;;;;13.26;100.00;100695.44;4979534;28;20574;-70
2023/01/01 04:07:04;;;;;;;3.23;2.00;;;;;;;13.09;100.00;100685.59;4976487;28;20777;-73
2023/01/01 04:09:36;;;;;;;6.27;1.87;;;;;;;13.01;100.00;100683.22;4982373;28;20208;-70
2023/01/01 04:12:04;;;;;;;5.07;2.10;;;;;;;12.90;100.00;100688.00;4981850;28;20205;-74
2023/01/01 04:14:34;;;;;;;3.57;1.80;;;;;;;12.91;100.00;100696.69;4981746;28;20309;-72
2023/01/01 04:17:01;;;;;;;6.63;2.03;;;;;;;12.96;100.00;100695.63;4984551;28;20201;-73
2023/01/01 04:19:29;;;;;;;2.87;1.93;;;;;;;13.03;100.00;100696.25;4987384;28;20212;-74
2023/01/01 04:21:56;;;;;;;3.90;1.97;;;;;;;12.92;100.00;100695.81;4986724;28;20216;-73
2023/01/01 04:24:23;;;;;;;3.47;2.10;;;;;;;12.74;100.00;100699.91;4985310;28;20567;-73
2023/01/01 04:26:49;;;;;;;3.80;2.00;;;;;;;12.63;100.00;100693.28;4986655;28;20210;-74
2023/01/01 04:29:16;;;;;;;3.83;2.10;;;;;;;12.54;100.00;100690.97;4984732;28;20198;-72
2023/01/01 04:31:42;;;;;;;4.47;1.80;;;;;;;12.47;100.00;100692.06;4984027;28;20221;-70
2023/01/01 04:34:09;;;;;;;3.73;1.70;;;;;;;12.47;100.00;100698.16;4983002;28;20206;-73
2023/01/01 04:36:37;;;;;;;3.97;2.17;;;;;;;12.39;100.00;100691.47;4987559;28;20201;-71
2023/01/01 04:39:04;;;;;;;3.30;1.90;;;;;;;12.36;100.00;100688.94;4984964;28;20253;-72
2023/01/01 04:41:31;;;;;;;2.87;1.73;;;;;;;12.38;100.00;100703.66;4986193;28;20559;-73
2023/01/01 04:43:57;;;;;;;2.90;1.73;;;;;;;12.41;100.00;100698.34;4984842;28;20235;-73
2023/01/01 04:46:24;;;;;;;3.93;1.90;;;;;;;12.34;100.00;100701.22;4986105;28;20206;-71
2023/01/01 04:48:50;;;;;;;3.50;2.00;;;;;;;12.35;100.00;100693.34;4981300;28;20221;-73
2023/01/01 04:51:20;;;;;;;2.30;1.50;;;;;;;12.29;100.00;100698.75;4986415;28;20526;-73
2023/01/01 04:53:48;;;;;;;5.67;2.10;;;;;;;12.22;100.00;100698.06;4986125;28;20209;-73
2023/01/01 04:56:17;;;;;;;2.30;1.53;;;;;;;12.21;100.00;100701.63;4984518;28;20213;-72
2023/01/01 04:58:44;;;;;;;3.73;1.77;;;;;;;12.15;100.00;100709.63;4985772;28;20702;-73
2023/01/01 05:01:15;;;;;;;3.10;1.80;;;;;;;12.05;100.00;100711.69;4985524;28;20659;-71
2023/01/01 05:03:42;;;;;;;3.07;1.50;;;;;;;12.11;100.00;100708.03;4982386;28;20205;-72
2023/01/01 05:06:11;;;;;;;3.83;1.73;;;;;;;12.11;100.00;100713.25;4986744;28;20805;-73
2023/01/01 05:08:39;;;;;;;1.60;1.40;;;;;;;12.02;100.00;100716.16;4986332;28;20753;-74
2023/01/01 05:11:09;;;;;;;2.67;1.67;;;;;;;12.07;100.00;100712.50;4981088;28;20237;-73
2023/01/01 05:13:36;;;;;;;4.03;1.90;;;;;;;12.06;100.00;100718.59;4985089;28;20217;-72
2023/01/01 05:16:03;;;;;;;4.23;1.60;;;;;;;12.13;100.00;100719.28;4984127;28;20205;-71
2023/01/01 05:18:30;;;;;;;3.47;1.77;;;;;;;12.12;100.00;100718.44;4983885;28;20232;-71
2023/01/01 05:20:59;;;;;;;5.20;2.10;;;;;;;12.09;100.00;100720.28;4987400;28;20217;-72
2023/01/01 05:23:26;;;;;;;2.53;1.70;;;;;;;12.22;100.00;100720.75;4980607;28;20206;-72
2023/01/01 05:25:52;;;;;;;2.43;1.73;;;;;;;12.13;100.00;100716.66;4982609;28;20261;-70
2023/01/01 05:28:20;;;;;;;5.80;1.80;;;;;;;12.10;100.00;100725.47;4983559;28;20228;-72
2023/01/01 05:30:46;;;;;;;4.40;1.53;;;;;;;12.10;100.00;100722.84;4981817;28;20214;-71
2023/01/01 05:33:13;;;;;;;2.43;1.50;;;;;;;12.12;100.00;100713.22;4983767;28;20201;-70
2023/01/01 05:35:39;;;;;;;2.40;1.50;;;;;;;12.10;100.00;100715.03;4982555;28;20213;-70
2023/01/01 05:38:05;;;;;;;2.63;1.67;;;;;;;12.08;100.00;100713.34;4985634;28;20237;-70
2023/01/01 05:40:32;;;;;;;3.70;1.80;;;;;;;11.99;100.00;100726.69;4986187;28;20788;-72
2023/01/01 05:42:58;;;;;;;2.27;1.60;;;;;;;11.97;100.00;100724.13;4988741;28;20208;-71
2023/01/01 05:45:26;;;;;;;2.07;1.73;;;;;;;11.95;100.00;100720.72;4984062;28;20458;-70
2023/01/01 05:47:52;;;;;;;3.50;2.07;;;;;;;11.94;100.00;100729.44;4983629;28;20225;-72
2023/01/01 05:50:19;;;;;;;3.73;1.50;;;;;;;11.93;100.00;100743.41;4983216;28;20225;-71
2023/01/01 05:52:45;;;;;;;2.20;1.63;;;;;;;11.91;100.00;100756.53;4984957;28;20546;-72
2023/01/01 05:55:12;;;;;;;2.53;1.50;;;;;;;11.86;100.00;100750.53;4984935;28;20202;-72
2023/01/01 05:57:38;;;;;;;2.97;1.73;;;;;;;11.91;100.00;100748.69;4984573;28;20213;-72
2023/01/01 06:00:06;;;;;;;3.87;1.80;;;;;;;11.94;100.00;100758.19;4982434;28;20355;-72
2023/01/01 06:02:34;;;;;;;3.03;1.80;;;;;;;11.95;100.00;100761.66;4985964;28;20279;-73
2023/01/01 06:05:01;;;;;;;3.00;1.53;;;;;;;11.85;100.00;100751.44;4982875;28;20201;-73
2023/01/01 06:07:28;;;;;;;2.60;1.40;;;;;;;11.84;100.00;100757.56;4978200;28;20221;-71
2023/01/01 06:09:54;;;;;;;2.80;1.60;;;;;;;11.86;100.00;100757.53;4984590;28;20198;-70
2023/01/01 06:12:20;;;;;;;3.33;1.83;;;;;;;11.83;100.00;100766.31;4983807;28;20197;-72
2023/01/01 06:14:47;;;;;;;1.57;1.40;;;;;;;11.83;100.00;100765.47;4984191;28;20213;-70
2023/01/01 06:17:13;;;;;;;2.70;1.80;;;;;;;11.78;100.00;100768.19;4982312;28;20305;-71
2023/01/01 06:19:41;;;;;;;2.00;1.50;;;;;;;11.80;100.00;100774.22;4984011;28;20220;-71
2023/01/01 06:22:07;;;;;;;5.33;1.90;;;;;;;11.97;100.00;100765.94;4982025;28;20229;-70
2023/01/01 06:24:34;;;;;;;4.23;1.83;;;;;;;12.05;100.00;100768.34;4982561;28;20212;-72
2023/01/01 06:27:00;;;;;;;3.87;1.90;;;;;;;12.00;100.00;100770.22;4984026;28;20212;-71
2023/01/01 06:29:26;;;;;;;4.57;1.53;;;;;;;11.98;100.00;100769.38;4982591;28;20209;-70
2023/01/01 06:31:53;;;;;;;2.97;1.90;;;;;;;11.99;100.00;100765.88;4984469;28;20717;-70
2023/01/01 06:34:19;;;;;;;2.07;1.50;;;;;;;12.04;100.00;100766.63;4983127;28;20709;-71
2023/01/01 06:36:47;;;;;;;3.97;1.80;;;;;;;12.09;100.00;100772.56;4979815;28;20219;-71
2023/01/01 06:39:13;;;;;;;2.83;1.90;;;;;;;11.99;100.00;100774.56;4981413;28;20216;-70
2023/01/01 06:41:39;;;;;;;2.47;1.50;;;;;;;12.05;100.00;100773.56;4979473;28;20573;-74
2023/01/01 06:44:06;;;;;;;3.20;1.60;;;;;;;12.06;100.00;100770.88;4981527;28;20216;-72
2023/01/01 06:46:34;;;;;;;3.93;1.60;;;;;;;12.11;100.00;100779.44;4980557;28;20588;-74
2023/01/01 06:49:03;;;;;;;2.63;1.80;;;;;;;12.07;100.00;100779.59;4981193;28;20221;-74
2023/01/01 06:51:32;;;;;;;2.33;1.60;;;;;;;12.09;100.00;100768.19;4984832;28;20213;-71
2023/01/01 06:54:01;;;;;;;2.10;1.53;;;;;;;12.08;100.00;100779.56;4985231;28;20421;-71
2023/01/01 06:56:28;;;;;;;4.17;1.63;;;;;;;12.06;100.00;100788.31;4981697;28;20211;-73
2023/01/01 06:58:54;;;;;;;3.80;1.87;;;;;;;12.27;100.00;100790.28;4982464;28;20299;-71
2023/01/01 07:01:23;;;;;;;5.73;1.70;;;;;;;12.26;100.00;100796.44;4983791;28;20209;-70
2023/01/01 07:03:50;;;;;;;6.17;2.17;;;;;;;12.28;100.00;100786.78;4977990;28;20728;-70
2023/01/01 07:06:17;;;;;;;2.53;1.67;;;;;;;12.11;100.00;100796.88;4978192;28;20197;-70
2023/01/01 07:08:43;;;;;;;2.03;1.40;;;;;;;12.14;100.00;100786.34;4981925;28;20228;-73
2023/01/01 07:11:11;;;;;;;3.90;1.70;;;;;;;12.12;100.00;100802.06;4975671;28;20305;-71
2023/01/01 07:13:37;;;;;;;2.37;1.60;;;;;;;12.19;100.00;100796.66;4982139;28;20216;-74
2023/01/01 07:16:05;;;;;;;3.27;1.70;;;;;;;12.26;100.00;100806.88;4977792;28;20206;-72
2023/01/01 07:18:31;;;;;;;2.50;1.50;;;;;;;12.28;100.00;100812.06;4979012;28;20220;-73
2023/01/01 07:20:59;;;;;;;2.53;1.50;;;;;;;12.20;100.00;100820.13;4982664;28;20570;-72
2023/01/01 07:23:27;;;;;;;2.13;1.70;;;;;;;12.23;100.00;100817.44;4980429;28;20209;-72
2023/01/01 07:25:54;;;;;;;6.50;1.73;;;;;;;12.27;100.00;100832.09;4985329;28;20356;-70
2023/01/01 07:28:23;;;;;;;2.67;1.70;;;;;;;12.28;100.00;100833.00;4982725;28;20230;-70
2023/01/01 07:30:51;;;;;;;3.07;1.80;;;;;;;12.28;100.00;100835.59;4980784;28;20954;-70
2023/01/01 07:33:21;;;;;;;2.87;2.00;;;;;;;12.41;100.00;100833.47;4984744;28;20598;-70
2023/01/01 07:35:48;;;;;;;3.93;2.00;;;;;;;12.56;100.00;100834.75;4980924;28;20238;-70
2023/01/01 07:38:15;;;;;;;2.77;1.70;;;;;;;12.54;100.00;100847.00;4982151;28;20260;-71
2023/01/01 07:40:42;;;;;;;3.00;1.70;;;;;;;12.56;100.00;100851.31;4978133;28;20209;-71
2023/01/01 07:43:11;;;;;;;2.90;1.80;;;;;;;12.55;100.00;100843.50;4982331;28;20264;-71
2023/01/01 07:45:39;;;;;;;2.40;1.67;;;;;;;12.65;100.00;100845.78;4983429;28;20256;-70
2023/01/01 07:48:06;;;;;;;4.60;1.70;;;;;;;12.71;100.00;100841.28;4978934;28;20213;-72
2023/01/01 07:50:32;;;;;;;2.97;1.90;;;;;;;12.81;100.00;100858.41;4978840;28;20574;-70
2023/01/01 07:52:59;;;;;;;3.77;2.07;;;;;;;12.78;100.00;100853.25;4984716;28;20206;-70
2023/01/01 07:55:26;;;;;;;3.00;1.60;;;;;;;12.80;100.00;100852.28;4987833;28;20460;-70
2023/01/01 07:57:53;;;;;;;2.77;1.70;;;;;;;12.79;100.00;100861.06;4981087;28;20730;-70
2023/01/01 08:00:21;;;;;;;3.77;1.67;;;;;;;12.87;100.00;100866.91;4989105;28;20209;-71
2023/01/01 08:02:49;;;;;;;2.50;1.80;;;;;;;12.94;100.00;100866.69;4984830;28;20201;-70
2023/01/01 08:05:15;;;;;;;4.47;1.60;;;;;;;12.97;100.00;100874.47;4987102;28;20205;-73
2023/01/01 08:07:46;;;;;;;2.67;1.53;;;;;;;12.84;100.00;100864.38;4983549;28;20315;-70
2023/01/01 08:10:12;;;;;;;2.37;1.53;;;;;;;12.85;100.00;100868.69;4981472;28;20236;-71
2023/01/01 08:12:39;;;;;;;4.73;2.33;;;;;;;12.80;100.00;100869.75;4984471;28;20227;-72
2023/01/01 08:15:07;;;;;;;3.07;1.70;;;;;;;12.86;100.00;100880.03;4982452;28;20220;-73
2023/01/01 08:17:33;;;;;;;2.77;2.03;;;;;;;12.98;100.00;100879.66;4981238;28;20350;-73
2023/01/01 08:20:01;;;;;;;2.37;1.60;;;;;;;12.99;100.00;100889.19;4980898;28;20305;-72
2023/01/01 08:22:28;;;;;;;2.83;1.97;;;;;;;12.93;100.00;100884.16;4982885;28;20233;-71
2023/01/01 08:24:54;;;;;;;3.47;2.00;;;;;;;12.92;100.00;100877.22;4985652;28;20286;-71
2023/01/01 08:27:21;;;;;;;3.97;2.17;;;;;;;12.97;100.00;100887.53;4984770;28;20227;-71
2023/01/01 08:29:47;;;;;;;3.60;2.50;;;;;;;13.00;100.00;100888.31;4982548;28;20209;-74
2023/01/01 08:32:14;;;;;;;5.20;2.00;;;;;;;13.02;100.00;100885.63;4984994;28;20217;-73
2023/01/01 08:34:40;;;;;;;3.33;2.33;;;;;;;13.01;100.00;100882.16;4981161;28;20209;-72
2023/01/01 08:37:12;;;;;;;3.87;2.17;;;;;;;13.05;100.00;100889.00;4983066;28;20210;-72
2023/01/01 08:39:39;;;;;;;3.13;2.13;;;;;;;13.07;100.00;100884.56;4981969;28;20557;-71
2023/01/01 08:42:05;;;;;;;5.63;2.70;;;;;;;13.21;100.00;100893.75;4983379;28;20206;-70
2023/01/01 08:44:32;;;;;;;3.77;2.43;;;;;;;13.19;100.00;100892.94;4984593;28;20610;-71
2023/01/01 08:46:58;;;;;;;4.53;2.23;;;;;;;13.27;100.00;100899.63;4986768;28;20201;-72
2023/01/01 08:49:24;;;;;;;4.87;2.73;;;;;;;13.29;100.00;100906.59;4981137;28;20215;-72
2023/01/01 08:51:51;;;;;;;3.77;2.70;;;;;;;13.31;100.00;100905.66;4980108;28;20222;-72
2023/01/01 08:54:18;;;;;;;3.57;2.40;;;;;;;13.41;100.00;100908.84;4984030;28;20204;-72
2023/01/01 08:56:45;;;;;;;6.93;2.80;;;;;;;13.43;100.00;100905.25;4981157;28;20205;-72
2023/01/01 08:59:11;;;;;;;4.80;3.10;;;;;;;13.40;100.00;100910.59;4982623;28;20226;-75
2023/01/01 09:01:37;;;;;;;5.57;3.30;;;;;;;13.38;100.00;100904.53;4985250;28;20209;-71
2023/01/01 09:04:06;;;;;;;8.20;4.83;;;;;;;13.50;100.00;100916.38;4981762;28;20203;-71
2023/01/01 09:06:33;;;;;;;7.03;2.83;;;;;;;13.49;100.00;100924.28;4982538;28;20279;-70
2023/01/01 09:08:59;;;;;;;12.97;5.73;;;;;;;13.48;100.00;100922.59;4984918;28;20236;-69
2023/01/01 09:11:28;;;;;;;14.67;5.63;;;;;;;13.51;100.00;100935.56;4984752;28;20726;-75
2023/01/01 09:13:55;;;;;;;5.20;2.70;;;;;;;13.53;100.00;100937.22;4981842;28;20200;-70
2023/01/01 09:16:22;;;;;;;4.57;2.90;;;;;;;13.55;100.00;100943.28;4980384;28;20245;-70
2023/01/01 09:18:49;;;;;;;9.57;4.50;;;;;;;13.58;100.00;100934.47;4985084;28;20230;-70
2023/01/01 09:21:15;;;;;;;5.63;2.47;;;;;;;13.66;100.00;100948.16;4980440;28;20357;-70
2023/01/01 09:23:42;;;;;;;8.60;4.27;;;;;;;13.67;100.00;100947.25;4985264;28;20207;-71
2023/01/01 09:26:09;;;;;;;4.80;2.90;;;;;;;13.77;100.00;100947.78;4983386;28;20212;-72
2023/01/01 09:28:38;;;;;;;4.23;2.83;;;;;;;13.82;100.00;100956.34;4982515;28;20303;-73
2023/01/01 09:31:05;;;;;;;5.50;3.07;;;;;;;13.80;100.00;100952.91;4983416;28;20629;-72
2023/01/01 09:33:32;;;;;;;4.57;2.97;;;;;;;13.80;100.00;100955.53;4982517;28;20858;-70
2023/01/01 09:36:12;;;;;;;4.40;2.43;;;;;;;13.79;100.00;100962.56;4980417;28;20193;-72
2023/01/01 09:38:38;;;;;;;3.70;2.47;;;;;;;13.81;100.00;100965.13;4982437;28;20225;-71
2023/01/01 09:41:16;;;;;;;5.73;2.87;;;;;;;13.83;100.00;100961.53;4980242;28;20561;-71
2023/01/01 09:43:53;;;;;;;5.07;2.87;;;;;;;13.87;100.00;100956.19;4978076;28;20644;-70
2023/01/01 09:46:19;;;;;;;3.33;2.60;;;;;;;13.86;100.00;100968.44;4980682;28;20772;-71
2023/01/01 09:48:57;;;;;;;5.90;3.07;;;;;;;13.94;100.00;100971.66;4981910;28;20225;-73
2023/01/01 09:51:26;;;;;;;7.53;3.03;;;;;;;13.93;100.00;100971.69;4982816;28;20240;-72
2023/01/01 09:53:59;;;;;;;4.10;2.77;;;;;;;13.98;100.00;100961.91;4982677;28;20210;-73
2023/01/01 09:56:28;;;;;;;3.77;2.77;;;;;;;13.99;100.00;100974.97;4982644;28;20205;-70
2023/01/01 09:58:57;;;;;;;5.37;3.10;;;;;;;13.99;100.00;100968.88;4978583;28;20311;-73
2023/01/01 10:01:38;;;;;;;3.83;2.50;;;;;;;13.96;100.00;100972.44;4979874;28;20757;-70
2023/01/01 10:04:24;;;;;;;5.90;2.90;;;;;;;13.93;100.00;100979.56;4975719;28;20697;-72
2023/01/01 10:06:59;;;;;;;3.30;2.60;;;;;;;13.95;100.00;100985.63;4980907;28;20209;-74
2023/01/01 10:09:34;;;;;;;3.17;2.43;;;;;;;13.95;100.00;100975.16;4979204;28;20204;-72
2023/01/01 10:12:06;;;;;;;3.77;2.50;;;;;;;13.95;100.00;100967.28;4981027;28;20204;-72
2023/01/01 10:14:37;;;;;;;7.40;2.97;;;;;;;13.93;100.00;100971.69;4982767;28;20219;-71
2023/01/01 10:17:15;;;;;;;5.53;2.90;;;;;;;13.93;100.00;100961.22;4980469;28;20268;-72
2023/01/01 10:19:45;;;;;;;6.23;2.50;;;;;;;13.92;100.00;100972.63;4981952;28;20561;-71
2023/01/01 10:22:17;;;;;;;5.07;3.07;;;;;;;13.92;100.00;100960.34;4978567;28;20284;-72
2023/01/01 10:24:46;;;;;;;4.47;2.77;;;;;;;13.96;100.00;100967.19;4975902;28;20234;-71
2023/01/01 10:27:26;;;;;;;4.30;2.90;;;;;;;13.99;100.00;100964.47;4983812;28;20228;-70
2023/01/01 10:29:54;;;;;;;4.23;2.87;;;;;;;14.04;100.00;100969.56;4977671;28;20221;-72
2023/01/01 10:32:27;;;;;;;5.23;2.63;;;;;;;14.04;100.00;100980.06;4981385;28;20216;-72
2023/01/01 10:34:53;;;;;;;4.23;2.60;;;;;;;14.09;100.00;100990.38;4979584;28;20217;-70
2023/01/01 10:37:21;;;;;;;6.53;2.97;;;;;;;14.08;100.00;100991.28;4981766;28;20232;-73
2023/01/01 10:39:48;;;;;;;4.10;2.80;;;;;;;14.05;100.00;100989.63;4975552;28;20213;-72
2023/01/01 10:42:16;;;;;;;3.67;2.43;;;;;;;14.07;100.00;100994.81;4976658;28;21577;-71
2023/01/01 10:44:43;;;;;;;5.10;2.77;;;;;;;14.05;100.00;100988.78;4979321;28;20217;-72
2023/01/01 10:47:23;;;;;;;5.23;2.67;;;;;;;14.05;100.00;100983.53;4972641;28;20215;-70
2023/01/01 10:49:57;;;;;;;3.77;2.70;;;;;;;14.04;100.00;100980.06;4980601;28;20220;-72
2023/01/01 10:52:31;;;;;;;5.40;2.80;;;;;;;13.99;100.00;100981.97;4980404;28;20234;-70
2023/01/01 10:54:59;;;;;;;3.77;2.53;;;;;;;13.96;100.00;100990.78;4979710;28;20719;-71
2023/01/01 10:57:32;;;;;;;3.60;2.53;;;;;;;13.88;100.00;100977.13;4982162;28;20654;-73
2023/01/01 11:00:21;;;;;;;5.67;2.80;;;;;;;13.90;100.00;100984.94;4981552;28;20206;-72
2023/01/01 11:03:10;;;;;;;5.00;2.60;;;;;;;13.90;100.00;100985.78;4979228;28;20216;-74
2023/01/01 11:05:37;;;;;;;7.03;2.57;;;;;;;13.95;100.00;100977.75;4982452;28;20545;-71
2023/01/01 11:08:04;;;;;;;6.40;2.97;;;;;;;13.94;100.00;100982.13;4982477;28;20629;-73
2023/01/01 11:10:30;;;;;;;5.73;2.63;;;;;;;13.97;100.00;100995.13;4982959;28;20245;-73
2023/01/01 11:12:57;;;;;;;6.57;2.50;;;;;;;13.94;100.00;100997.84;4983441;28;20311;-71
2023/01/01 11:15:37;;;;;;;4.87;2.30;;;;;;;13.96;100.00;100988.16;4984101;28;20213;-72
2023/01/01 11:18:10;;;;;;;4.70;2.50;;;;;;;14.02;100.00;100989.75;4981260;28;20224;-71
2023/01/01 11:20:37;;;;;;;5.77;2.70;;;;;;;14.02;100.00;100992.38;4981306;28;20213;-70
2023/01/01 11:23:20;;;;;;;5.40;2.60;;;;;;;14.02;100.00;100984.50;4982600;28;20287;-70
2023/01/01 11:26:01;;;;;;;5.07;2.40;;;;;;;14.06;100.00;100973.00;4983799;28;20567;-74
2023/01/01 11:28:30;;;;;;;4.67;2.60;;;;;;;14.07;100.00;100968.59;4985620;28;20311;-72